createdAt,value
2023-01-20T00:01:12.022Z,6.78
2023-01-20T00:03:40.644Z,7.65
2023-01-20T00:06:11.383Z,8.25
2023-01-20T00:08:40.084Z,8.05
2023-01-20T00:11:09.250Z,8.18
2023-01-20T00:13:38.023Z,8.30
2023-01-20T00:16:10.050Z,7.45
2023-01-20T00:18:38.073Z,7.63
2023-01-20T00:21:07.159Z,8.05
2023-01-20T00:23:35.152Z,6.55
2023-01-20T00:26:06.403Z,8.70
2023-01-20T00:28:36.995Z,7.40
2023-01-20T00:31:14.237Z,8.95
2023-01-20T00:33:44.360Z,8.65
2023-01-20T00:36:15.229Z,7.53
2023-01-20T00:38:43.820Z,8.40
2023-01-20T00:41:12.319Z,9.05
2023-01-20T00:43:40.667Z,8.02
2023-01-20T00:46:09.405Z,9.45
2023-01-20T00:48:39.524Z,7.28
2023-01-20T00:51:08.665Z,7.78
2023-01-20T00:53:37.195Z,8.65
2023-01-20T00:56:05.733Z,10.63
2023-01-20T00:58:33.729Z,8.45
2023-01-20T01:01:02.785Z,8.07
2023-01-20T01:03:30.997Z,9.02
2023-01-20T01:06:09.221Z,9.32
2023-01-20T01:08:37.487Z,8.75
2023-01-20T01:11:06.203Z,9.20
2023-01-20T01:13:34.809Z,7.75
2023-01-20T01:16:02.802Z,9.00
2023-01-20T01:18:30.957Z,7.10
2023-01-20T01:20:58.947Z,7.55
2023-01-20T01:23:28.227Z,7.95
2023-01-20T01:25:57.023Z,8.15
2023-01-20T01:28:24.932Z,8.23
2023-01-20T01:30:52.886Z,9.43
2023-01-20T01:33:20.795Z,7.47
2023-01-20T01:35:58.319Z,8.73
2023-01-20T01:38:28.344Z,7.50
2023-01-20T01:40:57.292Z,8.48
2023-01-20T01:43:27.259Z,7.60
2023-01-20T01:45:55.478Z,7.07
2023-01-20T01:48:26.426Z,6.55
2023-01-20T01:50:57.352Z,6.10
2023-01-20T01:53:28.243Z,7.78
2023-01-20T01:55:59.934Z,7.07
2023-01-20T01:58:32.826Z,6.88
2023-01-20T02:01:01.065Z,6.85
2023-01-20T02:03:32.723Z,6.85
2023-01-20T02:06:01.501Z,6.25
2023-01-20T02:08:31.209Z,5.10
2023-01-20T02:10:59.119Z,5.82
2023-01-20T02:13:27.196Z,6.00
2023-01-20T02:16:07.187Z,6.53
2023-01-20T02:18:46.670Z,6.20
2023-01-20T02:22:03.701Z,5.90
2023-01-20T02:25:15.370Z,5.10
2023-01-20T02:28:06.237Z,5.88
2023-01-20T02:30:57.883Z,5.03
2023-01-20T02:33:31.312Z,4.57
2023-01-20T02:36:03.538Z,4.88
2023-01-20T02:38:38.888Z,5.20
2023-01-20T02:41:11.703Z,4.88
2023-01-20T02:43:48.485Z,5.82
2023-01-20T02:46:24.655Z,5.75
2023-01-20T02:49:00.981Z,4.90
2023-01-20T02:51:34.433Z,5.10
2023-01-20T02:54:06.664Z,4.93
2023-01-20T02:56:37.291Z,5.90
2023-01-20T02:59:09.412Z,5.32
2023-01-20T03:01:41.278Z,4.68
2023-01-20T03:04:14.029Z,5.25
2023-01-20T03:06:45.450Z,5.00
2023-01-20T03:09:17.986Z,5.50
2023-01-20T03:11:52.215Z,5.53
2023-01-20T03:14:20.488Z,5.03
2023-01-20T03:16:50.350Z,7.97
2023-01-20T03:19:21.156Z,5.55
2023-01-20T03:21:49.774Z,5.38
2023-01-20T03:24:18.012Z,6.05
2023-01-20T03:26:46.090Z,5.05
2023-01-20T03:29:15.944Z,6.35
2023-01-20T03:31:47.171Z,4.82
2023-01-20T03:34:19.072Z,5.38
2023-01-20T03:36:49.107Z,6.30
2023-01-20T03:39:17.618Z,5.90
2023-01-20T03:41:55.717Z,6.45
2023-01-20T03:44:33.864Z,5.82
2023-01-20T03:47:10.757Z,5.90
2023-01-20T03:49:47.076Z,5.45
2023-01-20T03:52:47.837Z,6.05
2023-01-20T03:55:17.446Z,5.65
2023-01-20T03:57:52.909Z,4.70
2023-01-20T04:00:23.994Z,4.57
2023-01-20T04:02:54.321Z,5.95
2023-01-20T04:05:23.096Z,7.30
2023-01-20T04:07:56.954Z,5.28
2023-01-20T04:10:27.354Z,5.53
2023-01-20T04:12:55.770Z,5.63
2023-01-20T04:15:26.127Z,7.57
2023-01-20T04:17:54.418Z,5.70
2023-01-20T04:20:24.647Z,6.35
2023-01-20T04:22:58.199Z,5.60
2023-01-20T04:25:30.751Z,6.20
2023-01-20T04:27:58.812Z,6.20
2023-01-20T04:30:26.913Z,5.70
2023-01-20T04:32:55.003Z,9.18
2023-01-20T04:35:23.114Z,5.05
2023-01-20T04:37:51.077Z,4.88
2023-01-20T04:40:20.626Z,4.78
2023-01-20T04:42:48.576Z,6.13
2023-01-20T04:45:17.501Z,6.75
2023-01-20T04:47:46.063Z,6.63
2023-01-20T04:50:15.183Z,7.38
2023-01-20T04:52:43.298Z,5.72
2023-01-20T04:55:12.423Z,6.72
2023-01-20T04:57:41.832Z,6.07
2023-01-20T05:00:14.831Z,6.18
2023-01-20T05:02:42.806Z,6.22
2023-01-20T05:05:10.923Z,6.22
2023-01-20T05:07:38.867Z,7.07
2023-01-20T05:10:08.074Z,7.13
2023-01-20T05:12:36.494Z,6.63
2023-01-20T05:15:07.098Z,7.53
2023-01-20T05:17:35.031Z,6.57
2023-01-20T05:20:03.033Z,6.10
2023-01-20T05:22:33.114Z,7.18
2023-01-20T05:25:01.167Z,6.10
2023-01-20T05:27:29.151Z,5.75
2023-01-20T05:29:59.521Z,6.25
2023-01-20T05:32:31.212Z,6.55
2023-01-20T05:34:59.172Z,5.80
2023-01-20T05:37:27.119Z,6.75
2023-01-20T05:39:55.052Z,6.03
2023-01-20T05:42:23.044Z,6.03
2023-01-20T05:44:50.971Z,6.75
2023-01-20T05:47:18.927Z,5.65
2023-01-20T05:49:48.207Z,6.32
2023-01-20T05:52:16.215Z,5.00
2023-01-20T05:54:44.159Z,6.03
2023-01-20T05:57:14.448Z,6.25
2023-01-20T05:59:42.535Z,6.68
2023-01-20T06:02:13.196Z,6.93
2023-01-20T06:04:41.107Z,7.93
2023-01-20T06:07:10.410Z,7.20
2023-01-20T06:09:38.326Z,5.93
2023-01-20T06:12:06.661Z,6.43
2023-01-20T06:14:34.617Z,6.25
2023-01-20T06:17:02.641Z,6.72
2023-01-20T06:19:30.587Z,4.07
2023-01-20T06:21:58.616Z,4.38
2023-01-20T06:24:28.185Z,5.45
2023-01-20T06:26:56.306Z,4.97
2023-01-20T06:29:24.286Z,4.40
2023-01-20T06:31:52.654Z,4.28
2023-01-20T06:34:20.628Z,3.38
2023-01-20T06:36:48.547Z,4.13
2023-01-20T06:39:16.713Z,3.85
2023-01-20T06:41:46.391Z,4.10
2023-01-20T06:44:15.407Z,5.32
2023-01-20T06:46:43.422Z,6.25
2023-01-20T06:49:11.361Z,5.78
2023-01-20T06:51:39.304Z,6.13
2023-01-20T06:54:07.254Z,5.93
2023-01-20T06:56:35.136Z,4.72
2023-01-20T06:59:04.567Z,6.00
2023-01-20T07:01:33.318Z,5.60
2023-01-20T07:04:01.289Z,5.65
2023-01-20T07:06:31.624Z,6.20
2023-01-20T07:09:01.050Z,5.38
2023-01-20T07:11:31.260Z,3.85
2023-01-20T07:13:59.592Z,3.80
2023-01-20T07:16:28.880Z,3.75
2023-01-20T07:18:56.885Z,4.97
2023-01-20T07:21:26.502Z,4.75
2023-01-20T07:23:54.856Z,4.90
2023-01-20T07:26:26.345Z,4.30
2023-01-20T07:28:54.336Z,4.10
2023-01-20T07:31:24.491Z,5.75
2023-01-20T07:33:56.299Z,5.75
2023-01-20T07:36:24.699Z,8.00
2023-01-20T07:38:54.178Z,7.55
2023-01-20T07:41:22.882Z,10.50
2023-01-20T07:43:52.736Z,12.07
2023-01-20T07:46:20.983Z,11.60
2023-01-20T07:48:49.003Z,5.88
2023-01-20T07:51:19.916Z,7.07
2023-01-20T07:53:50.952Z,5.43
2023-01-20T07:56:23.320Z,6.28
2023-01-20T07:58:51.705Z,6.35
2023-01-20T08:01:21.396Z,5.60
2023-01-20T08:03:50.175Z,7.13
2023-01-20T08:06:21.843Z,5.95
2023-01-20T08:08:50.516Z,6.85
2023-01-20T08:11:20.552Z,6.90
2023-01-20T08:13:48.941Z,9.00
2023-01-20T08:16:18.896Z,8.80
2023-01-20T08:18:47.836Z,7.65
2023-01-20T08:21:22.513Z,8.73
2023-01-20T08:23:50.918Z,7.65
2023-01-20T08:26:24.589Z,9.07
2023-01-20T08:28:53.325Z,7.22
2023-01-20T08:31:22.880Z,7.88
2023-01-20T08:33:54.286Z,6.18
2023-01-20T08:36:25.655Z,8.38
2023-01-20T08:38:53.830Z,8.20
2023-01-20T08:41:25.038Z,7.55
2023-01-20T08:43:53.430Z,7.57
2023-01-20T08:46:22.885Z,8.07
2023-01-20T08:48:51.775Z,7.13
2023-01-20T08:51:21.711Z,7.32
2023-01-20T08:53:51.985Z,7.57
2023-01-20T08:56:20.889Z,7.68
2023-01-20T08:58:48.920Z,7.65
2023-01-20T09:01:18.620Z,8.38
2023-01-20T09:04:02.970Z,7.80
2023-01-20T09:06:32.590Z,6.50
2023-01-20T09:09:03.850Z,6.40
2023-01-20T09:11:32.921Z,7.20
2023-01-20T09:14:00.940Z,8.50
2023-01-20T09:16:29.011Z,8.05
2023-01-20T09:18:56.980Z,9.60
2023-01-20T09:21:25.044Z,6.80
2023-01-20T09:23:53.060Z,8.70
2023-01-20T09:26:34.840Z,6.75
2023-01-20T09:29:09.204Z,5.97
2023-01-20T09:31:37.968Z,5.35
2023-01-20T09:34:05.963Z,8.60
2023-01-20T09:36:33.968Z,7.65
2023-01-20T09:39:19.549Z,7.38
2023-01-20T09:42:07.643Z,6.10
2023-01-20T09:44:47.764Z,6.45
2023-01-20T09:47:27.657Z,6.03
2023-01-20T09:50:41.246Z,5.80
2023-01-20T09:53:15.661Z,6.28
2023-01-20T09:55:50.057Z,7.07
2023-01-20T09:58:28.696Z,7.20
2023-01-20T10:01:01.571Z,7.40
2023-01-20T10:03:37.038Z,8.18
2023-01-20T10:06:12.875Z,7.82
2023-01-20T10:09:03.653Z,7.70
2023-01-20T10:11:37.991Z,7.93
2023-01-20T10:14:18.662Z,7.72
2023-01-20T10:16:52.516Z,8.77
2023-01-20T10:19:27.001Z,7.15
2023-01-20T10:22:04.762Z,10.00
2023-01-20T10:24:40.681Z,7.90
2023-01-20T10:27:08.674Z,7.75
2023-01-20T10:29:39.598Z,7.07
2023-01-20T10:32:15.120Z,6.95
2023-01-20T10:34:46.630Z,6.60
2023-01-20T10:37:16.161Z,6.97
2023-01-20T10:39:48.179Z,7.60
2023-01-20T10:42:18.473Z,8.25
2023-01-20T10:44:49.861Z,8.73
2023-01-20T10:47:24.690Z,8.98
2023-01-20T10:50:11.740Z,8.65
2023-01-20T10:52:54.005Z,7.95
2023-01-20T10:55:30.755Z,7.75
2023-01-20T10:58:06.123Z,6.82
2023-01-20T11:00:36.469Z,7.47
2023-01-20T11:03:11.062Z,8.43
2023-01-20T11:05:41.140Z,7.85
2023-01-20T11:08:15.192Z,6.35
2023-01-20T11:10:43.317Z,9.52
2023-01-20T11:13:12.726Z,6.05
2023-01-20T11:15:46.523Z,6.32
2023-01-20T11:18:27.874Z,8.63
2023-01-20T11:20:59.579Z,8.45
2023-01-20T11:23:36.532Z,7.75
2023-01-20T11:26:10.027Z,7.95
2023-01-20T11:28:48.587Z,8.75
2023-01-20T11:31:18.450Z,7.47
2023-01-20T11:33:57.498Z,6.05
2023-01-20T11:36:26.805Z,3.40
2023-01-20T11:38:56.126Z,7.70
2023-01-20T11:41:25.764Z,8.40
2023-01-20T11:43:56.350Z,9.75
2023-01-20T11:46:28.966Z,8.60
2023-01-20T11:49:18.618Z,7.90
2023-01-20T11:51:49.577Z,8.25
2023-01-20T11:54:19.855Z,9.82
2023-01-20T11:56:51.894Z,7.60
2023-01-20T11:59:26.958Z,9.60
2023-01-20T12:02:02.206Z,7.57
2023-01-20T12:04:50.730Z,8.80
2023-01-20T12:07:25.286Z,8.07
2023-01-20T12:09:56.103Z,8.27
2023-01-20T12:12:30.884Z,8.88
2023-01-20T12:15:05.960Z,9.25
2023-01-20T12:17:45.091Z,7.22
2023-01-20T12:20:20.555Z,8.65
2023-01-20T12:22:59.938Z,11.52
2023-01-20T12:25:31.164Z,10.00
2023-01-20T12:28:05.136Z,11.02
2023-01-20T12:30:52.735Z,9.52
2023-01-20T12:33:27.955Z,7.28
2023-01-20T12:36:30.826Z,8.63
2023-01-20T12:39:15.896Z,9.32
2023-01-20T12:41:57.724Z,8.55
2023-01-20T12:44:32.892Z,8.27
2023-01-20T12:47:12.827Z,7.57
2023-01-20T12:49:57.598Z,8.05
2023-01-20T12:52:40.635Z,7.20
2023-01-20T12:55:24.011Z,8.32
2023-01-20T12:58:04.469Z,8.18
2023-01-20T13:00:50.963Z,8.43
2023-01-20T13:03:45.131Z,8.20
2023-01-20T13:06:33.246Z,8.23
2023-01-20T13:09:13.098Z,8.43
2023-01-20T13:11:53.576Z,7.63
2023-01-20T13:14:25.847Z,9.20
2023-01-20T13:17:00.727Z,8.20
2023-01-20T13:19:31.616Z,8.02
2023-01-20T13:22:10.638Z,8.25
2023-01-20T13:24:42.658Z,9.52
2023-01-20T13:27:12.011Z,7.65
2023-01-20T13:29:53.829Z,13.15
2023-01-20T13:32:34.457Z,9.55
2023-01-20T13:35:15.842Z,9.55
2023-01-20T13:37:50.233Z,8.88
2023-01-20T13:40:49.677Z,8.95
2023-01-20T13:43:58.013Z,9.02
2023-01-20T13:46:46.522Z,8.35
2023-01-20T13:49:26.627Z,9.50
2023-01-20T13:51:54.630Z,7.20
2023-01-20T13:54:43.210Z,8.88
2023-01-20T13:57:39.111Z,14.43
2023-01-20T14:00:18.174Z,11.63
2023-01-20T14:02:47.457Z,10.07
2023-01-20T14:05:22.178Z,9.57
2023-01-20T14:07:50.131Z,9.35
2023-01-20T14:10:19.922Z,10.80
2023-01-20T14:12:47.908Z,8.50
2023-01-20T14:15:27.615Z,7.78
2023-01-20T14:17:56.384Z,7.72
2023-01-20T14:20:27.332Z,6.97
2023-01-20T14:22:56.544Z,7.18
2023-01-20T14:25:28.048Z,9.05
2023-01-20T14:27:57.084Z,8.40
2023-01-20T14:30:26.928Z,9.70
2023-01-20T14:32:55.233Z,8.65
2023-01-20T14:35:28.056Z,7.78
2023-01-20T14:37:56.279Z,7.80
2023-01-20T14:40:31.762Z,8.20
2023-01-20T14:43:01.621Z,6.78
2023-01-20T14:45:32.317Z,7.57
2023-01-20T14:48:03.561Z,6.78
2023-01-20T14:50:32.173Z,4.40
2023-01-20T14:53:00.445Z,4.85
2023-01-20T14:55:32.005Z,7.20
2023-01-20T14:58:00.682Z,5.75
2023-01-20T15:00:30.356Z,6.32
2023-01-20T15:03:11.321Z,5.18
2023-01-20T15:05:53.330Z,6.50
2023-01-20T15:08:26.417Z,5.55
2023-01-20T15:11:22.290Z,7.93
2023-01-20T15:14:10.862Z,13.57
2023-01-20T15:16:50.399Z,11.48
2023-01-20T15:19:29.256Z,6.65
2023-01-20T15:22:11.497Z,5.85
2023-01-20T15:24:40.306Z,5.82
2023-01-20T15:27:30.411Z,5.30
2023-01-20T15:30:21.175Z,5.30
2023-01-20T15:32:50.206Z,7.00
2023-01-20T15:35:22.755Z,6.47
2023-01-20T15:37:51.365Z,6.47
2023-01-20T15:40:21.154Z,5.97
2023-01-20T15:42:51.288Z,8.07
2023-01-20T15:45:20.145Z,7.25
2023-01-20T15:47:49.029Z,7.03
2023-01-20T15:50:19.490Z,6.20
2023-01-20T15:52:47.904Z,7.00
2023-01-20T15:55:17.827Z,6.03
2023-01-20T15:57:47.887Z,5.93
2023-01-20T16:00:24.869Z,5.90
2023-01-20T16:02:52.969Z,5.93
2023-01-20T16:05:21.132Z,6.85
2023-01-20T16:07:50.200Z,7.13
2023-01-20T16:10:19.377Z,6.43
2023-01-20T16:12:47.988Z,5.63
2023-01-20T16:15:17.814Z,6.07
2023-01-20T16:17:47.609Z,6.10
2023-01-20T16:20:23.473Z,6.70
2023-01-20T16:22:51.587Z,6.25
2023-01-20T16:25:22.362Z,5.57
2023-01-20T16:27:50.429Z,5.78
2023-01-20T16:30:21.162Z,6.88
2023-01-20T16:32:50.836Z,6.20
2023-01-20T16:35:20.972Z,5.50
2023-01-20T16:37:49.070Z,4.75
2023-01-20T16:40:19.832Z,4.75
2023-01-20T16:42:48.321Z,6.00
2023-01-20T16:45:28.634Z,5.40
2023-01-20T16:47:59.333Z,5.85
2023-01-20T16:50:28.276Z,5.32
2023-01-20T16:52:56.394Z,4.70
2023-01-20T16:55:24.970Z,4.22
2023-01-20T16:57:52.918Z,4.75
2023-01-20T17:00:22.137Z,4.80
2023-01-20T17:02:51.616Z,5.13
2023-01-20T17:05:25.308Z,5.72
2023-01-20T17:07:54.253Z,4.80
2023-01-20T17:10:22.199Z,4.90
2023-01-20T17:12:52.146Z,4.72
2023-01-20T17:15:20.932Z,4.95
2023-01-20T17:17:49.707Z,5.07
2023-01-20T17:20:20.091Z,4.97
2023-01-20T17:22:49.356Z,5.28
2023-01-20T17:25:18.115Z,6.05
2023-01-20T17:27:46.097Z,5.35
2023-01-20T17:30:15.077Z,4.90
2023-01-20T17:32:47.428Z,6.05
2023-01-20T17:35:15.769Z,6.05
2023-01-20T17:37:43.866Z,5.05
2023-01-20T17:40:15.962Z,5.00
2023-01-20T17:42:44.542Z,6.35
2023-01-20T17:45:13.243Z,5.30
2023-01-20T17:47:41.208Z,5.45
2023-01-20T17:50:10.224Z,5.07
2023-01-20T17:52:39.155Z,4.60
2023-01-20T17:55:08.036Z,4.78
2023-01-20T17:57:37.306Z,4.60
2023-01-20T18:00:06.436Z,4.28
2023-01-20T18:02:34.910Z,4.55
2023-01-20T18:05:03.075Z,4.65
2023-01-20T18:07:31.032Z,4.82
2023-01-20T18:09:59.033Z,4.32
2023-01-20T18:12:27.207Z,4.05
2023-01-20T18:14:58.536Z,4.53
2023-01-20T18:17:34.139Z,3.55
2023-01-20T18:20:02.114Z,4.35
2023-01-20T18:22:30.036Z,3.95
2023-01-20T18:24:58.001Z,4.63
2023-01-20T18:27:25.937Z,4.55
2023-01-20T18:29:53.940Z,3.83
2023-01-20T18:32:23.242Z,3.85
2023-01-20T18:34:51.184Z,4.30
2023-01-20T18:37:19.105Z,4.15
2023-01-20T18:39:47.685Z,4.65
2023-01-20T18:42:15.628Z,5.20
2023-01-20T18:44:43.609Z,5.47
2023-01-20T18:47:11.662Z,5.55
2023-01-20T18:49:40.943Z,4.45
2023-01-20T18:52:11.754Z,4.25
2023-01-20T18:54:39.890Z,3.30
2023-01-20T18:57:09.212Z,3.45
2023-01-20T18:59:37.600Z,4.18
2023-01-20T19:02:05.603Z,3.40
2023-01-20T19:04:35.550Z,3.55
2023-01-20T19:07:05.889Z,3.30
2023-01-20T19:09:34.995Z,2.33
2023-01-20T19:12:03.083Z,3.13
2023-01-20T19:14:31.005Z,3.03
2023-01-20T19:16:58.987Z,2.15
2023-01-20T19:19:26.910Z,3.10
2023-01-20T19:21:54.809Z,2.17
2023-01-20T19:24:28.747Z,2.88
2023-01-20T19:26:58.201Z,2.63
2023-01-20T19:29:29.129Z,3.10
2023-01-20T19:32:00.544Z,3.20
2023-01-20T19:34:28.665Z,2.70
2023-01-20T19:36:57.443Z,2.70
2023-01-20T19:39:26.922Z,2.67
2023-01-20T19:41:55.314Z,3.20
2023-01-20T19:44:23.241Z,2.08
2023-01-20T19:46:51.500Z,2.47
2023-01-20T19:49:19.687Z,2.95
2023-01-20T19:51:47.600Z,2.50
2023-01-20T19:54:15.631Z,2.40
2023-01-20T19:56:46.062Z,3.03
2023-01-20T19:59:15.059Z,3.03
2023-01-20T20:01:43.227Z,2.35
2023-01-20T20:04:13.725Z,3.03
2023-01-20T20:06:47.629Z,2.40
2023-01-20T20:09:18.263Z,3.58
2023-01-20T20:11:48.643Z,3.20
2023-01-20T20:14:19.043Z,2.60
2023-01-20T20:16:47.788Z,2.67
2023-01-20T20:19:17.897Z,2.95
2023-01-20T20:21:46.695Z,2.53
2023-01-20T20:24:16.943Z,2.67
2023-01-20T20:26:47.520Z,2.83
2023-01-20T20:29:17.007Z,2.55
2023-01-20T20:31:46.780Z,2.40
2023-01-20T20:34:16.792Z,2.45
2023-01-20T20:36:45.395Z,2.90
2023-01-20T20:39:17.466Z,3.05
2023-01-20T20:41:47.461Z,2.20
2023-01-20T20:44:16.371Z,2.40
2023-01-20T20:46:44.371Z,2.80
2023-01-20T20:49:16.497Z,2.88
2023-01-20T20:51:44.847Z,2.33
2023-01-20T20:54:16.657Z,1.95
2023-01-20T20:56:45.046Z,2.22
2023-01-20T20:59:16.258Z,2.35
2023-01-20T21:01:44.215Z,1.50
2023-01-20T21:04:12.277Z,2.03
2023-01-20T21:06:43.064Z,2.42
2023-01-20T21:09:11.218Z,1.83
2023-01-20T21:11:41.515Z,2.42
2023-01-20T21:14:12.133Z,2.20
2023-01-20T21:16:41.515Z,3.25
2023-01-20T21:19:09.463Z,3.25
2023-01-20T21:21:40.099Z,3.22
2023-01-20T21:24:13.815Z,7.25
2023-01-20T21:26:42.996Z,6.03
2023-01-20T21:29:11.709Z,5.63
2023-01-20T21:31:41.003Z,6.35
2023-01-20T21:34:13.690Z,2.30
2023-01-20T21:36:42.253Z,2.75
2023-01-20T21:39:13.547Z,2.25
2023-01-20T21:41:41.570Z,2.25
2023-01-20T21:44:29.513Z,2.35
2023-01-20T21:47:00.803Z,2.80
2023-01-20T21:49:47.011Z,2.42
2023-01-20T21:52:34.294Z,2.20
2023-01-20T21:55:02.821Z,2.92
2023-01-20T21:57:32.580Z,3.42
2023-01-20T22:00:01.110Z,3.20
2023-01-20T22:02:30.716Z,3.10
2023-01-20T22:04:58.665Z,2.17
2023-01-20T22:07:27.033Z,2.03
2023-01-20T22:09:57.181Z,2.10
2023-01-20T22:12:26.104Z,2.35
2023-01-20T22:14:54.042Z,2.42
2023-01-20T22:17:21.948Z,2.53
2023-01-20T22:19:51.224Z,2.50
2023-01-20T22:22:22.009Z,2.10
2023-01-20T22:24:49.917Z,2.42
2023-01-20T22:27:18.230Z,2.53
2023-01-20T22:29:46.990Z,2.50
2023-01-20T22:32:14.926Z,2.17
2023-01-20T22:34:42.830Z,3.08
2023-01-20T22:37:12.088Z,2.28
2023-01-20T22:39:40.995Z,1.80
2023-01-20T22:42:09.714Z,2.40
2023-01-20T22:44:40.511Z,3.30
2023-01-20T22:47:10.771Z,2.17
2023-01-20T22:49:41.321Z,2.05
2023-01-20T22:52:09.251Z,2.10
2023-01-20T22:54:38.767Z,2.42
2023-01-20T22:57:06.755Z,1.77
2023-01-20T22:59:35.675Z,2.60
2023-01-20T23:02:03.662Z,2.05
2023-01-20T23:04:34.323Z,1.92
2023-01-20T23:07:02.230Z,2.15
2023-01-20T23:09:30.293Z,1.63
2023-01-20T23:11:59.549Z,2.22
2023-01-20T23:14:58.473Z,2.22
2023-01-20T23:17:26.537Z,1.73
2023-01-20T23:19:54.815Z,1.98
2023-01-20T23:22:23.383Z,1.63
2023-01-20T23:24:51.363Z,1.90
2023-01-20T23:27:20.635Z,2.10
2023-01-20T23:29:49.115Z,1.70
2023-01-20T23:32:17.055Z,1.80
2023-01-20T23:34:44.986Z,1.55
2023-01-20T23:37:13.662Z,2.55
2023-01-20T23:39:41.590Z,1.92
2023-01-20T23:42:11.818Z,1.20
2023-01-20T23:44:41.075Z,1.40
2023-01-20T23:47:10.313Z,1.35
2023-01-20T23:49:38.486Z,1.50
2023-01-20T23:52:06.610Z,1.75
2023-01-20T23:54:34.581Z,1.58
2023-01-20T23:57:02.514Z,1.63
2023-01-20T23:59:30.697Z,2.00
